sensor_id;sensor_type;location;lat;lon;timestamp;P1;durP1;ratioP1;P2;durP2;ratioP2
13079;SDS011;6606;49.154;9.280;2022-09-19T00:01:43;0.63;;;0.63;;
13079;SDS011;6606;49.154;9.280;2022-09-19T00:04:12;0.70;;;0.70;;
13079;SDS011;6606;49.154;9.280;2022-09-19T00:06:42;1.00;;;0.80;;
13079;SDS011;6606;49.154;9.280;2022-09-19T00:09:12;1.20;;;0.70;;
13079;SDS011;6606;49.154;9.280;2022-09-19T00:11:40;2.03;;;0.80;;
13079;SDS011;6606;49.154;9.280;2022-09-19T00:14:09;1.13;;;0.90;;
13079;SDS011;6606;49.154;9.280;2022-09-19T00:16:39;1.20;;;0.60;;
13079;SDS011;6606;49.154;9.280;2022-09-19T00:19:10;1.57;;;0.97;;
13079;SDS011;6606;49.154;9.280;2022-09-19T00:21:38;0.97;;;0.80;;
13079;SDS011;6606;49.154;9.280;2022-09-19T00:24:08;0.70;;;0.70;;
13079;SDS011;6606;49.154;9.280;2022-09-19T00:26:54;1.27;;;0.90;;
13079;SDS011;6606;49.154;9.280;2022-09-19T00:29:21;1.97;;;0.90;;
13079;SDS011;6606;49.154;9.280;2022-09-19T00:31:49;0.80;;;0.80;;
13079;SDS011;6606;49.154;9.280;2022-09-19T00:34:16;1.00;;;0.90;;
13079;SDS011;6606;49.154;9.280;2022-09-19T00:36:44;2.00;;;0.90;;
13079;SDS011;6606;49.154;9.280;2022-09-19T00:39:14;2.27;;;0.80;;
13079;SDS011;6606;49.154;9.280;2022-09-19T00:41:45;1.67;;;0.90;;
13079;SDS011;6606;49.154;9.280;2022-09-19T00:47:21;0.83;;;0.70;;
13079;SDS011;6606;49.154;9.280;2022-09-19T00:49:51;1.10;;;0.90;;
13079;SDS011;6606;49.154;9.280;2022-09-19T00:52:23;2.40;;;0.80;;
13079;SDS011;6606;49.154;9.280;2022-09-19T00:54:56;1.50;;;0.93;;
13079;SDS011;6606;49.154;9.280;2022-09-19T00:57:23;0.80;;;0.80;;
13079;SDS011;6606;49.154;9.280;2022-09-19T00:59:58;1.77;;;0.63;;
13079;SDS011;6606;49.154;9.280;2022-09-19T01:02:26;2.50;;;0.90;;
13079;SDS011;6606;49.154;9.280;2022-09-19T01:04:58;1.43;;;1.00;;
13079;SDS011;6606;49.154;9.280;2022-09-19T01:07:28;1.20;;;0.87;;
13079;SDS011;6606;49.154;9.280;2022-09-19T01:10:12;2.10;;;0.87;;
13079;SDS011;6606;49.154;9.280;2022-09-19T01:12:55;1.80;;;0.90;;
13079;SDS011;6606;49.154;9.280;2022-09-19T01:15:37;1.30;;;1.00;;
13079;SDS011;6606;49.154;9.280;2022-09-19T01:18:11;1.93;;;1.00;;
13079;SDS011;6606;49.154;9.280;2022-09-19T01:23:53;1.50;;;0.90;;
13079;SDS011;6606;49.154;9.280;2022-09-19T01:26:44;1.80;;;0.80;;
13079;SDS011;6606;49.154;9.280;2022-09-19T01:29:26;0.97;;;0.70;;
13079;SDS011;6606;49.154;9.280;2022-09-19T01:31:57;0.80;;;0.80;;
13079;SDS011;6606;49.154;9.280;2022-09-19T01:34:26;1.60;;;0.90;;
13079;SDS011;6606;49.154;9.280;2022-09-19T01:36:58;0.90;;;0.70;;
13079;SDS011;6606;49.154;9.280;2022-09-19T01:39:32;1.17;;;0.80;;
13079;SDS011;6606;49.154;9.280;2022-09-19T01:42:03;2.17;;;1.03;;
13079;SDS011;6606;49.154;9.280;2022-09-19T01:44:31;1.13;;;0.80;;
13079;SDS011;6606;49.154;9.280;2022-09-19T01:47:02;1.37;;;0.70;;
13079;SDS011;6606;49.154;9.280;2022-09-19T01:49:41;0.97;;;0.70;;
13079;SDS011;6606;49.154;9.280;2022-09-19T01:52:16;2.93;;;0.70;;
13079;SDS011;6606;49.154;9.280;2022-09-19T01:55:03;1.37;;;0.80;;
13079;SDS011;6606;49.154;9.280;2022-09-19T01:57:39;1.30;;;0.80;;
13079;SDS011;6606;49.154;9.280;2022-09-19T02:00:21;1.67;;;0.70;;
13079;SDS011;6606;49.154;9.280;2022-09-19T02:02:54;1.63;;;0.67;;
13079;SDS011;6606;49.154;9.280;2022-09-19T02:05:35;1.07;;;0.67;;
13079;SDS011;6606;49.154;9.280;2022-09-19T02:08:09;1.87;;;0.70;;
13079;SDS011;6606;49.154;9.280;2022-09-19T02:10:42;1.33;;;0.70;;
13079;SDS011;6606;49.154;9.280;2022-09-19T02:13:15;2.90;;;0.80;;
13079;SDS011;6606;49.154;9.280;2022-09-19T02:15:48;1.43;;;0.70;;
13079;SDS011;6606;49.154;9.280;2022-09-19T02:18:20;1.03;;;0.57;;
13079;SDS011;6606;49.154;9.280;2022-09-19T02:20:54;1.00;;;0.63;;
13079;SDS011;6606;49.154;9.280;2022-09-19T02:23:27;2.10;;;0.70;;
13079;SDS011;6606;49.154;9.280;2022-09-19T02:25:58;0.87;;;0.60;;
13079;SDS011;6606;49.154;9.280;2022-09-19T02:28:31;3.90;;;0.80;;
13079;SDS011;6606;49.154;9.280;2022-09-19T02:31:06;1.93;;;0.67;;
13079;SDS011;6606;49.154;9.280;2022-09-19T02:33:38;2.73;;;0.70;;
13079;SDS011;6606;49.154;9.280;2022-09-19T02:36:08;2.07;;;0.80;;
13079;SDS011;6606;49.154;9.280;2022-09-19T02:38:44;2.40;;;1.00;;
13079;SDS011;6606;49.154;9.280;2022-09-19T02:41:25;5.83;;;0.80;;
13079;SDS011;6606;49.154;9.280;2022-09-19T02:44:02;1.50;;;0.77;;
13079;SDS011;6606;49.154;9.280;2022-09-19T02:46:41;3.00;;;0.80;;
13079;SDS011;6606;49.154;9.280;2022-09-19T02:49:15;1.80;;;1.00;;
13079;SDS011;6606;49.154;9.280;2022-09-19T02:51:48;1.37;;;0.87;;
13079;SDS011;6606;49.154;9.280;2022-09-19T02:54:21;2.70;;;0.80;;
13079;SDS011;6606;49.154;9.280;2022-09-19T02:56:52;2.63;;;0.90;;
13079;SDS011;6606;49.154;9.280;2022-09-19T02:59:24;2.63;;;1.13;;
13079;SDS011;6606;49.154;9.280;2022-09-19T03:01:59;4.37;;;0.90;;
13079;SDS011;6606;49.154;9.280;2022-09-19T03:04:31;4.20;;;0.80;;
13079;SDS011;6606;49.154;9.280;2022-09-19T03:07:02;4.67;;;1.00;;
13079;SDS011;6606;49.154;9.280;2022-09-19T03:09:48;2.77;;;0.80;;
13079;SDS011;6606;49.154;9.280;2022-09-19T03:12:24;2.50;;;0.90;;
13079;SDS011;6606;49.154;9.280;2022-09-19T03:14:55;3.63;;;0.83;;
13079;SDS011;6606;49.154;9.280;2022-09-19T03:17:28;2.00;;;0.90;;
13079;SDS011;6606;49.154;9.280;2022-09-19T03:20:00;2.70;;;0.80;;
13079;SDS011;6606;49.154;9.280;2022-09-19T03:22:38;4.27;;;0.90;;
13079;SDS011;6606;49.154;9.280;2022-09-19T03:25:06;2.03;;;1.00;;
13079;SDS011;6606;49.154;9.280;2022-09-19T03:27:34;3.10;;;1.03;;
13079;SDS011;6606;49.154;9.280;2022-09-19T03:30:03;4.60;;;1.10;;
13079;SDS011;6606;49.154;9.280;2022-09-19T03:32:35;3.83;;;1.20;;
13079;SDS011;6606;49.154;9.280;2022-09-19T03:35:03;4.13;;;0.93;;
13079;SDS011;6606;49.154;9.280;2022-09-19T03:37:31;3.93;;;1.10;;
13079;SDS011;6606;49.154;9.280;2022-09-19T03:39:59;2.47;;;0.93;;
13079;SDS011;6606;49.154;9.280;2022-09-19T03:42:27;2.50;;;0.90;;
13079;SDS011;6606;49.154;9.280;2022-09-19T03:44:57;2.17;;;0.87;;
13079;SDS011;6606;49.154;9.280;2022-09-19T03:47:24;3.03;;;0.97;;
13079;SDS011;6606;49.154;9.280;2022-09-19T03:49:52;1.67;;;0.90;;
13079;SDS011;6606;49.154;9.280;2022-09-19T03:52:19;1.67;;;0.90;;
13079;SDS011;6606;49.154;9.280;2022-09-19T03:54:46;2.40;;;0.97;;
13079;SDS011;6606;49.154;9.280;2022-09-19T03:57:13;2.80;;;0.90;;
13079;SDS011;6606;49.154;9.280;2022-09-19T03:59:46;3.23;;;1.20;;
13079;SDS011;6606;49.154;9.280;2022-09-19T04:02:13;2.60;;;0.90;;
13079;SDS011;6606;49.154;9.280;2022-09-19T04:04:39;1.73;;;0.93;;
13079;SDS011;6606;49.154;9.280;2022-09-19T04:07:09;4.83;;;1.10;;
13079;SDS011;6606;49.154;9.280;2022-09-19T04:09:38;2.00;;;1.10;;
13079;SDS011;6606;49.154;9.280;2022-09-19T04:12:06;3.63;;;1.33;;
13079;SDS011;6606;49.154;9.280;2022-09-19T04:14:35;3.60;;;1.40;;
13079;SDS011;6606;49.154;9.280;2022-09-19T04:17:03;4.60;;;1.27;;
13079;SDS011;6606;49.154;9.280;2022-09-19T04:19:32;5.73;;;1.03;;
13079;SDS011;6606;49.154;9.280;2022-09-19T04:22:12;3.03;;;1.23;;
13079;SDS011;6606;49.154;9.280;2022-09-19T04:24:47;1.90;;;0.80;;
13079;SDS011;6606;49.154;9.280;2022-09-19T04:27:41;2.23;;;0.93;;
13079;SDS011;6606;49.154;9.280;2022-09-19T04:30:10;3.30;;;0.90;;
13079;SDS011;6606;49.154;9.280;2022-09-19T04:32:40;4.77;;;1.30;;
13079;SDS011;6606;49.154;9.280;2022-09-19T04:35:08;2.83;;;1.20;;
13079;SDS011;6606;49.154;9.280;2022-09-19T04:37:36;3.90;;;1.67;;
13079;SDS011;6606;49.154;9.280;2022-09-19T04:40:08;3.63;;;1.03;;
13079;SDS011;6606;49.154;9.280;2022-09-19T04:42:35;4.73;;;1.30;;
13079;SDS011;6606;49.154;9.280;2022-09-19T04:45:03;5.70;;;1.13;;
13079;SDS011;6606;49.154;9.280;2022-09-19T04:47:48;4.47;;;1.20;;
13079;SDS011;6606;49.154;9.280;2022-09-19T04:50:16;5.03;;;1.10;;
13079;SDS011;6606;49.154;9.280;2022-09-19T04:52:55;5.00;;;1.27;;
13079;SDS011;6606;49.154;9.280;2022-09-19T04:55:22;3.83;;;1.23;;
13079;SDS011;6606;49.154;9.280;2022-09-19T04:57:52;4.00;;;1.20;;
13079;SDS011;6606;49.154;9.280;2022-09-19T05:00:19;6.80;;;1.30;;
13079;SDS011;6606;49.154;9.280;2022-09-19T05:03:03;3.57;;;1.20;;
13079;SDS011;6606;49.154;9.280;2022-09-19T05:05:31;8.33;;;1.23;;
13079;SDS011;6606;49.154;9.280;2022-09-19T05:08:00;2.30;;;1.20;;
13079;SDS011;6606;49.154;9.280;2022-09-19T05:10:31;3.10;;;1.17;;
13079;SDS011;6606;49.154;9.280;2022-09-19T05:13:00;5.23;;;1.20;;
13079;SDS011;6606;49.154;9.280;2022-09-19T05:15:28;5.53;;;1.43;;
13079;SDS011;6606;49.154;9.280;2022-09-19T05:17:55;6.23;;;1.40;;
13079;SDS011;6606;49.154;9.280;2022-09-19T05:20:23;5.43;;;1.20;;
13079;SDS011;6606;49.154;9.280;2022-09-19T05:22:53;1.77;;;1.10;;
13079;SDS011;6606;49.154;9.280;2022-09-19T05:25:26;5.97;;;1.40;;
13079;SDS011;6606;49.154;9.280;2022-09-19T05:27:55;4.20;;;1.10;;
13079;SDS011;6606;49.154;9.280;2022-09-19T05:30:24;3.70;;;1.20;;
13079;SDS011;6606;49.154;9.280;2022-09-19T05:32:52;4.57;;;1.23;;
13079;SDS011;6606;49.154;9.280;2022-09-19T05:35:29;6.37;;;1.40;;
13079;SDS011;6606;49.154;9.280;2022-09-19T05:38:17;4.23;;;1.50;;
13079;SDS011;6606;49.154;9.280;2022-09-19T05:40:56;5.60;;;1.57;;
13079;SDS011;6606;49.154;9.280;2022-09-19T05:43:46;5.07;;;1.40;;
13079;SDS011;6606;49.154;9.280;2022-09-19T05:46:12;4.13;;;1.30;;
13079;SDS011;6606;49.154;9.280;2022-09-19T05:48:42;3.50;;;1.40;;
13079;SDS011;6606;49.154;9.280;2022-09-19T05:51:09;7.47;;;1.60;;
13079;SDS011;6606;49.154;9.280;2022-09-19T05:53:35;4.93;;;1.30;;
13079;SDS011;6606;49.154;9.280;2022-09-19T05:56:55;6.00;;;1.30;;
13079;SDS011;6606;49.154;9.280;2022-09-19T05:59:22;5.17;;;1.50;;
13079;SDS011;6606;49.154;9.280;2022-09-19T06:01:48;7.07;;;1.50;;
13079;SDS011;6606;49.154;9.280;2022-09-19T06:04:36;7.03;;;1.57;;
13079;SDS011;6606;49.154;9.280;2022-09-19T06:07:03;6.10;;;1.50;;
13079;SDS011;6606;49.154;9.280;2022-09-19T06:09:30;3.83;;;1.50;;
13079;SDS011;6606;49.154;9.280;2022-09-19T06:12:00;4.63;;;1.40;;
13079;SDS011;6606;49.154;9.280;2022-09-19T06:14:29;4.70;;;1.37;;
13079;SDS011;6606;49.154;9.280;2022-09-19T06:17:00;4.63;;;1.50;;
13079;SDS011;6606;49.154;9.280;2022-09-19T06:19:47;5.07;;;1.30;;
13079;SDS011;6606;49.154;9.280;2022-09-19T06:22:33;6.87;;;1.50;;
13079;SDS011;6606;49.154;9.280;2022-09-19T06:25:00;8.03;;;1.90;;
13079;SDS011;6606;49.154;9.280;2022-09-19T06:27:30;4.17;;;1.40;;
13079;SDS011;6606;49.154;9.280;2022-09-19T06:29:57;4.67;;;1.63;;
13079;SDS011;6606;49.154;9.280;2022-09-19T06:32:27;7.17;;;1.47;;
13079;SDS011;6606;49.154;9.280;2022-09-19T06:35:16;5.17;;;1.53;;
13079;SDS011;6606;49.154;9.280;2022-09-19T06:37:43;6.10;;;1.40;;
13079;SDS011;6606;49.154;9.280;2022-09-19T06:40:11;5.73;;;1.77;;
13079;SDS011;6606;49.154;9.280;2022-09-19T06:42:49;5.73;;;1.90;;
13079;SDS011;6606;49.154;9.280;2022-09-19T06:45:43;6.10;;;1.80;;
13079;SDS011;6606;49.154;9.280;2022-09-19T06:48:39;9.27;;;2.13;;
13079;SDS011;6606;49.154;9.280;2022-09-19T06:51:33;6.30;;;1.60;;
13079;SDS011;6606;49.154;9.280;2022-09-19T06:54:00;6.27;;;1.70;;
13079;SDS011;6606;49.154;9.280;2022-09-19T06:56:28;10.27;;;1.97;;
13079;SDS011;6606;49.154;9.280;2022-09-19T06:58:56;8.23;;;1.77;;
13079;SDS011;6606;49.154;9.280;2022-09-19T07:01:22;7.77;;;2.00;;
13079;SDS011;6606;49.154;9.280;2022-09-19T07:03:50;9.00;;;1.90;;
13079;SDS011;6606;49.154;9.280;2022-09-19T07:06:25;5.90;;;1.70;;
13079;SDS011;6606;49.154;9.280;2022-09-19T07:09:03;5.20;;;2.10;;
13079;SDS011;6606;49.154;9.280;2022-09-19T07:11:32;9.40;;;1.70;;
13079;SDS011;6606;49.154;9.280;2022-09-19T07:14:02;6.73;;;1.90;;
13079;SDS011;6606;49.154;9.280;2022-09-19T07:16:29;6.53;;;1.60;;
13079;SDS011;6606;49.154;9.280;2022-09-19T07:18:56;9.13;;;1.87;;
13079;SDS011;6606;49.154;9.280;2022-09-19T07:21:40;7.27;;;1.80;;
13079;SDS011;6606;49.154;9.280;2022-09-19T07:24:11;6.10;;;1.70;;
13079;SDS011;6606;49.154;9.280;2022-09-19T07:26:55;5.47;;;1.60;;
13079;SDS011;6606;49.154;9.280;2022-09-19T07:29:23;7.00;;;2.10;;
13079;SDS011;6606;49.154;9.280;2022-09-19T07:31:50;5.53;;;1.73;;
13079;SDS011;6606;49.154;9.280;2022-09-19T07:34:17;6.50;;;1.80;;
13079;SDS011;6606;49.154;9.280;2022-09-19T07:36:47;9.27;;;2.00;;
13079;SDS011;6606;49.154;9.280;2022-09-19T07:39:14;5.27;;;1.83;;
13079;SDS011;6606;49.154;9.280;2022-09-19T07:42:13;9.63;;;1.67;;
13079;SDS011;6606;49.154;9.280;2022-09-19T07:45:19;6.20;;;1.63;;
13079;SDS011;6606;49.154;9.280;2022-09-19T07:48:03;9.50;;;2.00;;
13079;SDS011;6606;49.154;9.280;2022-09-19T07:50:41;7.63;;;1.83;;
13079;SDS011;6606;49.154;9.280;2022-09-19T07:53:18;5.10;;;1.40;;
13079;SDS011;6606;49.154;9.280;2022-09-19T07:55:47;7.20;;;2.00;;
13079;SDS011;6606;49.154;9.280;2022-09-19T07:58:17;12.13;;;1.93;;
13079;SDS011;6606;49.154;9.280;2022-09-19T08:00:51;7.80;;;1.60;;
13079;SDS011;6606;49.154;9.280;2022-09-19T08:03:46;6.10;;;1.60;;
13079;SDS011;6606;49.154;9.280;2022-09-19T08:06:16;9.70;;;1.93;;
13079;SDS011;6606;49.154;9.280;2022-09-19T08:08:44;8.03;;;1.97;;
13079;SDS011;6606;49.154;9.280;2022-09-19T08:11:32;8.53;;;2.03;;
13079;SDS011;6606;49.154;9.280;2022-09-19T08:14:00;7.67;;;1.90;;
13079;SDS011;6606;49.154;9.280;2022-09-19T08:16:29;5.90;;;1.50;;
13079;SDS011;6606;49.154;9.280;2022-09-19T08:18:56;8.00;;;1.80;;
13079;SDS011;6606;49.154;9.280;2022-09-19T08:21:24;8.47;;;1.80;;
13079;SDS011;6606;49.154;9.280;2022-09-19T08:23:51;7.43;;;2.03;;
13079;SDS011;6606;49.154;9.280;2022-09-19T08:26:18;7.07;;;1.90;;
13079;SDS011;6606;49.154;9.280;2022-09-19T08:28:47;7.97;;;1.90;;
13079;SDS011;6606;49.154;9.280;2022-09-19T08:31:14;5.73;;;1.43;;
13079;SDS011;6606;49.154;9.280;2022-09-19T08:37:14;7.77;;;1.90;;
13079;SDS011;6606;49.154;9.280;2022-09-19T08:39:42;6.20;;;1.80;;
13079;SDS011;6606;49.154;9.280;2022-09-19T08:42:38;9.90;;;2.07;;
13079;SDS011;6606;49.154;9.280;2022-09-19T08:45:12;4.83;;;1.50;;
13079;SDS011;6606;49.154;9.280;2022-09-19T08:47:49;8.10;;;2.00;;
13079;SDS011;6606;49.154;9.280;2022-09-19T08:50:17;4.53;;;1.57;;
13079;SDS011;6606;49.154;9.280;2022-09-19T08:52:50;7.20;;;1.70;;
13079;SDS011;6606;49.154;9.280;2022-09-19T08:55:25;5.73;;;1.90;;
13079;SDS011;6606;49.154;9.280;2022-09-19T08:57:55;5.33;;;1.67;;
13079;SDS011;6606;49.154;9.280;2022-09-19T09:00:26;5.83;;;1.80;;
13079;SDS011;6606;49.154;9.280;2022-09-19T09:02:59;6.17;;;1.70;;
13079;SDS011;6606;49.154;9.280;2022-09-19T09:05:38;5.90;;;1.60;;
13079;SDS011;6606;49.154;9.280;2022-09-19T09:08:16;7.20;;;2.10;;
13079;SDS011;6606;49.154;9.280;2022-09-19T09:11:06;8.73;;;2.00;;
13079;SDS011;6606;49.154;9.280;2022-09-19T09:13:45;6.40;;;1.73;;
13079;SDS011;6606;49.154;9.280;2022-09-19T09:16:24;6.07;;;1.80;;
13079;SDS011;6606;49.154;9.280;2022-09-19T09:19:02;7.93;;;1.70;;
13079;SDS011;6606;49.154;9.280;2022-09-19T09:21:46;5.23;;;1.83;;
13079;SDS011;6606;49.154;9.280;2022-09-19T09:24:26;7.47;;;1.87;;
13079;SDS011;6606;49.154;9.280;2022-09-19T09:27:34;6.03;;;1.90;;
13079;SDS011;6606;49.154;9.280;2022-09-19T09:30:15;8.03;;;1.97;;
13079;SDS011;6606;49.154;9.280;2022-09-19T09:32:53;4.23;;;2.00;;
13079;SDS011;6606;49.154;9.280;2022-09-19T09:35:28;6.97;;;2.33;;
13079;SDS011;6606;49.154;9.280;2022-09-19T09:38:04;7.77;;;2.10;;
13079;SDS011;6606;49.154;9.280;2022-09-19T09:40:43;6.30;;;2.00;;
13079;SDS011;6606;49.154;9.280;2022-09-19T09:43:33;9.13;;;2.27;;
13079;SDS011;6606;49.154;9.280;2022-09-19T09:46:13;7.83;;;2.13;;
13079;SDS011;6606;49.154;9.280;2022-09-19T09:48:43;9.30;;;2.30;;
13079;SDS011;6606;49.154;9.280;2022-09-19T09:51:18;7.70;;;1.87;;
13079;SDS011;6606;49.154;9.280;2022-09-19T09:54:04;8.23;;;2.00;;
13079;SDS011;6606;49.154;9.280;2022-09-19T09:56:57;5.80;;;1.80;;
13079;SDS011;6606;49.154;9.280;2022-09-19T09:59:33;5.97;;;1.97;;
13079;SDS011;6606;49.154;9.280;2022-09-19T10:02:26;8.20;;;2.27;;
13079;SDS011;6606;49.154;9.280;2022-09-19T10:05:26;4.80;;;2.10;;
13079;SDS011;6606;49.154;9.280;2022-09-19T10:08:01;6.93;;;1.90;;
13079;SDS011;6606;49.154;9.280;2022-09-19T10:10:41;5.47;;;1.97;;
13079;SDS011;6606;49.154;9.280;2022-09-19T10:13:14;6.13;;;1.87;;
13079;SDS011;6606;49.154;9.280;2022-09-19T10:15:51;5.33;;;2.10;;
13079;SDS011;6606;49.154;9.280;2022-09-19T10:18:21;5.90;;;2.00;;
13079;SDS011;6606;49.154;9.280;2022-09-19T10:21:00;4.17;;;1.80;;
13079;SDS011;6606;49.154;9.280;2022-09-19T10:23:31;6.20;;;2.10;;
13079;SDS011;6606;49.154;9.280;2022-09-19T10:26:06;4.87;;;2.17;;
13079;SDS011;6606;49.154;9.280;2022-09-19T10:28:43;6.73;;;2.17;;
13079;SDS011;6606;49.154;9.280;2022-09-19T10:31:33;8.47;;;2.03;;
13079;SDS011;6606;49.154;9.280;2022-09-19T10:34:22;8.83;;;2.10;;
13079;SDS011;6606;49.154;9.280;2022-09-19T10:36:52;6.87;;;2.20;;
13079;SDS011;6606;49.154;9.280;2022-09-19T10:39:20;3.87;;;1.73;;
13079;SDS011;6606;49.154;9.280;2022-09-19T10:41:49;6.47;;;2.17;;
13079;SDS011;6606;49.154;9.280;2022-09-19T10:44:18;6.03;;;2.10;;
13079;SDS011;6606;49.154;9.280;2022-09-19T10:46:49;4.87;;;2.10;;
13079;SDS011;6606;49.154;9.280;2022-09-19T10:49:44;8.40;;;2.40;;
13079;SDS011;6606;49.154;9.280;2022-09-19T10:52:19;4.70;;;2.13;;
13079;SDS011;6606;49.154;9.280;2022-09-19T10:54:48;4.47;;;1.93;;
13079;SDS011;6606;49.154;9.280;2022-09-19T10:57:27;5.87;;;2.30;;
13079;SDS011;6606;49.154;9.280;2022-09-19T11:00:04;6.67;;;2.00;;
13079;SDS011;6606;49.154;9.280;2022-09-19T11:02:41;6.57;;;2.43;;
13079;SDS011;6606;49.154;9.280;2022-09-19T11:05:11;6.83;;;2.13;;
13079;SDS011;6606;49.154;9.280;2022-09-19T11:07:50;7.47;;;2.30;;
13079;SDS011;6606;49.154;9.280;2022-09-19T11:10:30;11.47;;;2.00;;
13079;SDS011;6606;49.154;9.280;2022-09-19T11:13:09;7.67;;;2.10;;
13079;SDS011;6606;49.154;9.280;2022-09-19T11:18:46;5.13;;;2.00;;
13079;SDS011;6606;49.154;9.280;2022-09-19T11:21:22;5.70;;;2.13;;
13079;SDS011;6606;49.154;9.280;2022-09-19T11:30:07;4.60;;;2.10;;
13079;SDS011;6606;49.154;9.280;2022-09-19T11:33:00;5.73;;;2.20;;
13079;SDS011;6606;49.154;9.280;2022-09-19T11:36:14;3.93;;;1.93;;
13079;SDS011;6606;49.154;9.280;2022-09-19T11:38:52;7.53;;;1.97;;
13079;SDS011;6606;49.154;9.280;2022-09-19T11:41:28;8.13;;;1.97;;
13079;SDS011;6606;49.154;9.280;2022-09-19T11:44:16;6.07;;;1.87;;
13079;SDS011;6606;49.154;9.280;2022-09-19T11:47:08;6.83;;;2.00;;
13079;SDS011;6606;49.154;9.280;2022-09-19T11:52:48;6.03;;;1.80;;
13079;SDS011;6606;49.154;9.280;2022-09-19T11:55:37;4.90;;;2.00;;
13079;SDS011;6606;49.154;9.280;2022-09-19T11:58:10;5.57;;;1.90;;
13079;SDS011;6606;49.154;9.280;2022-09-19T12:00:49;6.43;;;1.97;;
13079;SDS011;6606;49.154;9.280;2022-09-19T12:03:30;6.40;;;2.07;;
13079;SDS011;6606;49.154;9.280;2022-09-19T12:06:21;7.33;;;2.10;;
13079;SDS011;6606;49.154;9.280;2022-09-19T12:09:07;5.80;;;1.80;;
13079;SDS011;6606;49.154;9.280;2022-09-19T12:11:40;5.50;;;1.90;;
13079;SDS011;6606;49.154;9.280;2022-09-19T12:14:13;7.17;;;2.13;;
13079;SDS011;6606;49.154;9.280;2022-09-19T12:16:46;6.50;;;1.97;;
13079;SDS011;6606;49.154;9.280;2022-09-19T12:19:20;3.53;;;1.80;;
13079;SDS011;6606;49.154;9.280;2022-09-19T12:21:52;6.38;;;1.80;;
13079;SDS011;6606;49.154;9.280;2022-09-19T12:24:23;6.63;;;1.90;;
13079;SDS011;6606;49.154;9.280;2022-09-19T12:27:12;4.97;;;1.67;;
13079;SDS011;6606;49.154;9.280;2022-09-19T12:29:46;5.00;;;1.80;;
13079;SDS011;6606;49.154;9.280;2022-09-19T12:32:21;4.93;;;1.60;;
13079;SDS011;6606;49.154;9.280;2022-09-19T12:34:58;5.25;;;2.08;;
13079;SDS011;6606;49.154;9.280;2022-09-19T12:37:34;5.07;;;1.90;;
13079;SDS011;6606;49.154;9.280;2022-09-19T12:40:17;5.97;;;1.60;;
13079;SDS011;6606;49.154;9.280;2022-09-19T12:42:54;4.67;;;1.60;;
13079;SDS011;6606;49.154;9.280;2022-09-19T12:45:25;3.50;;;1.52;;
13079;SDS011;6606;49.154;9.280;2022-09-19T12:48:02;6.00;;;1.73;;
13079;SDS011;6606;49.154;9.280;2022-09-19T12:50:59;8.47;;;1.93;;
13079;SDS011;6606;49.154;9.280;2022-09-19T12:53:36;3.33;;;1.60;;
13079;SDS011;6606;49.154;9.280;2022-09-19T12:56:06;4.18;;;1.60;;
13079;SDS011;6606;49.154;9.280;2022-09-19T12:58:42;6.18;;;1.63;;
13079;SDS011;6606;49.154;9.280;2022-09-19T13:01:18;4.95;;;1.80;;
13079;SDS011;6606;49.154;9.280;2022-09-19T13:03:51;5.30;;;1.80;;
13079;SDS011;6606;49.154;9.280;2022-09-19T13:06:24;4.78;;;1.73;;
13079;SDS011;6606;49.154;9.280;2022-09-19T13:08:58;4.90;;;1.40;;
13079;SDS011;6606;49.154;9.280;2022-09-19T13:11:30;4.72;;;1.70;;
13079;SDS011;6606;49.154;9.280;2022-09-19T13:14:01;4.47;;;1.40;;
13079;SDS011;6606;49.154;9.280;2022-09-19T13:16:36;2.92;;;1.40;;
13079;SDS011;6606;49.154;9.280;2022-09-19T13:19:27;3.08;;;1.40;;
13079;SDS011;6606;49.154;9.280;2022-09-19T13:22:18;4.85;;;1.60;;
13079;SDS011;6606;49.154;9.280;2022-09-19T13:25:04;4.30;;;1.58;;
13079;SDS011;6606;49.154;9.280;2022-09-19T13:27:33;4.13;;;1.60;;
13079;SDS011;6606;49.154;9.280;2022-09-19T13:30:01;4.97;;;1.48;;
13079;SDS011;6606;49.154;9.280;2022-09-19T13:32:40;4.90;;;1.50;;
13079;SDS011;6606;49.154;9.280;2022-09-19T13:35:18;3.35;;;1.50;;
13079;SDS011;6606;49.154;9.280;2022-09-19T13:40:28;5.90;;;1.48;;
13079;SDS011;6606;49.154;9.280;2022-09-19T13:43:05;4.95;;;1.63;;
13079;SDS011;6606;49.154;9.280;2022-09-19T13:45:45;10.00;;;1.55;;
13079;SDS011;6606;49.154;9.280;2022-09-19T13:48:19;4.63;;;1.30;;
13079;SDS011;6606;49.154;9.280;2022-09-19T13:50:55;3.40;;;1.35;;
13079;SDS011;6606;49.154;9.280;2022-09-19T13:53:30;4.20;;;1.50;;
13079;SDS011;6606;49.154;9.280;2022-09-19T13:56:00;4.82;;;1.55;;
13079;SDS011;6606;49.154;9.280;2022-09-19T13:58:29;4.63;;;1.80;;
13079;SDS011;6606;49.154;9.280;2022-09-19T14:01:05;4.03;;;1.50;;
13079;SDS011;6606;49.154;9.280;2022-09-19T14:03:40;3.88;;;1.27;;
13079;SDS011;6606;49.154;9.280;2022-09-19T14:06:17;5.22;;;1.48;;
13079;SDS011;6606;49.154;9.280;2022-09-19T14:08:48;4.07;;;1.67;;
13079;SDS011;6606;49.154;9.280;2022-09-19T14:11:45;4.93;;;1.70;;
13079;SDS011;6606;49.154;9.280;2022-09-19T14:17:24;5.07;;;1.60;;
13079;SDS011;6606;49.154;9.280;2022-09-19T14:19:55;2.58;;;1.13;;
13079;SDS011;6606;49.154;9.280;2022-09-19T14:22:37;3.17;;;1.23;;
13079;SDS011;6606;49.154;9.280;2022-09-19T14:25:10;4.43;;;1.33;;
13079;SDS011;6606;49.154;9.280;2022-09-19T14:27:57;4.35;;;1.27;;
13079;SDS011;6606;49.154;9.280;2022-09-19T14:30:35;4.68;;;1.20;;
13079;SDS011;6606;49.154;9.280;2022-09-19T14:33:25;4.22;;;1.40;;
13079;SDS011;6606;49.154;9.280;2022-09-19T14:36:26;3.10;;;1.02;;
13079;SDS011;6606;49.154;9.280;2022-09-19T14:39:14;3.23;;;1.00;;
13079;SDS011;6606;49.154;9.280;2022-09-19T14:41:55;5.13;;;1.47;;
13079;SDS011;6606;49.154;9.280;2022-09-19T14:44:39;5.13;;;1.30;;
13079;SDS011;6606;49.154;9.280;2022-09-19T14:47:20;3.47;;;1.47;;
13079;SDS011;6606;49.154;9.280;2022-09-19T14:49:51;4.00;;;1.50;;
13079;SDS011;6606;49.154;9.280;2022-09-19T14:52:22;3.13;;;1.17;;
13079;SDS011;6606;49.154;9.280;2022-09-19T14:54:53;3.20;;;1.10;;
13079;SDS011;6606;49.154;9.280;2022-09-19T14:57:24;3.17;;;1.10;;
13079;SDS011;6606;49.154;9.280;2022-09-19T14:59:52;2.23;;;0.90;;
13079;SDS011;6606;49.154;9.280;2022-09-19T15:02:24;2.83;;;0.80;;
13079;SDS011;6606;49.154;9.280;2022-09-19T15:04:57;3.13;;;1.00;;
13079;SDS011;6606;49.154;9.280;2022-09-19T15:07:26;2.50;;;1.00;;
13079;SDS011;6606;49.154;9.280;2022-09-19T15:09:54;1.80;;;0.80;;
13079;SDS011;6606;49.154;9.280;2022-09-19T15:12:23;2.60;;;1.10;;
13079;SDS011;6606;49.154;9.280;2022-09-19T15:14:57;2.97;;;1.10;;
13079;SDS011;6606;49.154;9.280;2022-09-19T15:17:25;2.93;;;1.40;;
13079;SDS011;6606;49.154;9.280;2022-09-19T15:19:55;2.13;;;1.20;;
13079;SDS011;6606;49.154;9.280;2022-09-19T15:22:24;4.50;;;1.13;;
13079;SDS011;6606;49.154;9.280;2022-09-19T15:24:54;1.80;;;1.00;;
13079;SDS011;6606;49.154;9.280;2022-09-19T15:27:24;2.20;;;1.10;;
13079;SDS011;6606;49.154;9.280;2022-09-19T15:29:52;3.67;;;1.40;;
13079;SDS011;6606;49.154;9.280;2022-09-19T15:32:24;3.67;;;1.70;;
13079;SDS011;6606;49.154;9.280;2022-09-19T15:34:56;4.70;;;1.60;;
13079;SDS011;6606;49.154;9.280;2022-09-19T15:37:24;3.63;;;1.50;;
13079;SDS011;6606;49.154;9.280;2022-09-19T15:39:56;2.13;;;1.60;;
13079;SDS011;6606;49.154;9.280;2022-09-19T15:42:25;2.23;;;1.40;;
13079;SDS011;6606;49.154;9.280;2022-09-19T15:44:52;2.67;;;1.13;;
13079;SDS011;6606;49.154;9.280;2022-09-19T15:47:25;1.67;;;1.00;;
13079;SDS011;6606;49.154;9.280;2022-09-19T15:49:55;2.07;;;1.10;;
13079;SDS011;6606;49.154;9.280;2022-09-19T15:52:26;4.00;;;1.27;;
13079;SDS011;6606;49.154;9.280;2022-09-19T15:54:55;2.70;;;1.17;;
13079;SDS011;6606;49.154;9.280;2022-09-19T15:57:24;3.80;;;1.17;;
13079;SDS011;6606;49.154;9.280;2022-09-19T15:59:59;3.80;;;1.30;;
13079;SDS011;6606;49.154;9.280;2022-09-19T16:02:38;2.27;;;1.10;;
13079;SDS011;6606;49.154;9.280;2022-09-19T16:05:13;2.73;;;1.30;;
13079;SDS011;6606;49.154;9.280;2022-09-19T16:07:42;2.33;;;1.27;;
13079;SDS011;6606;49.154;9.280;2022-09-19T16:10:32;4.23;;;1.27;;
13079;SDS011;6606;49.154;9.280;2022-09-19T16:13:00;2.97;;;1.30;;
13079;SDS011;6606;49.154;9.280;2022-09-19T16:15:28;2.63;;;1.30;;